Time;durP1;ratioP1;P1;durP2;ratioP2;P2;SDS_P1;SDS_P2;PMS_P1;PMS_P2;Temp;Humidity;BMP_temperature;BMP_pressure;BME280_temperature;BME280_humidity;BME280_pressure;Samples;Min_cycle;Max_cycle;Signal;HPM_P1;HPM_P2
2023/06/02 00:02:03;;;;;;;0.00;0.00;;;13.30;99.90;;;;;;5045298;28;20195;-81
2023/06/02 00:04:29;;;;;;;0.10;0.10;;;13.30;99.90;;;;;;5044173;28;20235;-81
2023/06/02 00:06:55;;;;;;;0.10;0.10;;;13.30;99.90;;;;;;5046387;28;20638;-81
2023/06/02 00:09:21;;;;;;;0.10;0.10;;;13.30;99.90;;;;;;5041522;28;20236;-81
2023/06/02 00:11:47;;;;;;;0.10;0.10;;;13.20;99.90;;;;;;5045596;28;20189;-81
2023/06/02 00:14:14;;;;;;;0.10;0.10;;;13.10;99.90;;;;;;5045080;28;20622;-81
2023/06/02 00:16:44;;;;;;;0.10;0.10;;;13.10;99.90;;;;;;5045560;28;20276;-81
2023/06/02 00:19:13;;;;;;;0.10;0.10;;;13.00;99.90;;;;;;5043465;28;20182;-81
2023/06/02 00:21:39;;;;;;;0.10;0.10;;;13.00;99.90;;;;;;5044188;28;20204;-81
2023/06/02 00:24:05;;;;;;;0.07;0.07;;;13.00;99.90;;;;;;5043367;28;20205;-81
2023/06/02 00:26:30;;;;;;;0.10;0.10;;;12.90;99.90;;;;;;5044905;28;20280;-81
2023/06/02 00:28:56;;;;;;;0.10;0.10;;;12.90;99.90;;;;;;5047531;28;20675;-81
2023/06/02 00:31:21;;;;;;;0.10;0.10;;;12.90;99.90;;;;;;5048841;28;20682;-81
2023/06/02 00:33:48;;;;;;;0.10;0.10;;;12.90;99.90;;;;;;5045790;28;20181;-81
2023/06/02 00:36:13;;;;;;;0.10;0.10;;;12.90;99.90;;;;;;5044121;28;20181;-80
2023/06/02 00:38:41;;;;;;;0.10;0.10;;;12.80;99.90;;;;;;5040217;28;20207;-81
2023/06/02 00:41:07;;;;;;;0.00;0.00;;;12.80;99.90;;;;;;5045223;28;20730;-81
2023/06/02 00:43:32;;;;;;;0.10;0.10;;;12.80;99.90;;;;;;5041320;28;20200;-81
2023/06/02 00:45:58;;;;;;;0.10;0.10;;;12.90;99.90;;;;;;5044075;28;20211;-80
2023/06/02 00:48:23;;;;;;;0.10;0.10;;;13.00;99.90;;;;;;5043668;28;20213;-81
2023/06/02 00:50:49;;;;;;;0.10;0.10;;;12.90;99.90;;;;;;5042921;28;20200;-81
2023/06/02 00:53:15;;;;;;;0.10;0.10;;;12.90;99.90;;;;;;5041451;28;20189;-81
2023/06/02 00:55:42;;;;;;;0.10;0.10;;;12.80;99.90;;;;;;5042738;28;20212;-80
2023/06/02 00:58:13;;;;;;;0.10;0.10;;;12.70;99.90;;;;;;5042905;28;20217;-81
2023/06/02 01:00:42;;;;;;;0.10;0.10;;;12.60;99.90;;;;;;5041139;28;20205;-81
2023/06/02 01:03:08;;;;;;;0.10;0.10;;;12.50;99.90;;;;;;5042879;28;20178;-81
2023/06/02 01:05:36;;;;;;;0.10;0.10;;;12.50;99.90;;;;;;5042087;28;20227;-81
2023/06/02 01:08:03;;;;;;;0.10;0.10;;;12.50;99.90;;;;;;5042265;28;20754;-81
2023/06/02 01:10:29;;;;;;;0.10;0.10;;;12.50;99.90;;;;;;5043111;28;20246;-80
2023/06/02 01:12:55;;;;;;;0.00;0.00;;;12.40;99.90;;;;;;5045178;28;20179;-81
2023/06/02 01:15:21;;;;;;;0.10;0.10;;;12.40;99.90;;;;;;5044379;28;20205;-81
2023/06/02 01:17:47;;;;;;;0.03;0.03;;;12.30;99.90;;;;;;5042198;28;20614;-81
2023/06/02 01:20:14;;;;;;;0.10;0.10;;;12.30;99.90;;;;;;5039509;28;20200;-81
2023/06/02 01:22:49;;;;;;;0.10;0.10;;;12.30;99.90;;;;;;5043146;28;20207;-81
2023/06/02 01:25:23;;;;;;;0.10;0.10;;;12.30;99.90;;;;;;5042105;28;20203;-81
2023/06/02 01:27:50;;;;;;;0.10;0.10;;;12.30;99.90;;;;;;5046284;28;20172;-80
2023/06/02 01:30:16;;;;;;;0.10;0.10;;;12.20;99.90;;;;;;5043268;28;20205;-81
2023/06/02 01:33:10;;;;;;;0.10;0.10;;;12.20;99.90;;;;;;5043429;28;20187;-81
2023/06/02 01:35:43;;;;;;;0.10;0.10;;;12.10;99.90;;;;;;5040995;28;20217;-81
2023/06/02 01:38:09;;;;;;;0.10;0.10;;;12.00;99.90;;;;;;5041801;28;21122;-81
2023/06/02 01:40:36;;;;;;;0.10;0.10;;;12.00;99.90;;;;;;5042593;28;20248;-81
2023/06/02 01:43:03;;;;;;;0.10;0.10;;;12.00;99.90;;;;;;5043792;28;20213;-81
2023/06/02 01:45:30;;;;;;;0.10;0.10;;;12.00;99.90;;;;;;5043802;28;20199;-81
2023/06/02 01:48:07;;;;;;;0.10;0.10;;;12.00;99.90;;;;;;5042580;28;20700;-81
2023/06/02 01:50:34;;;;;;;0.10;0.10;;;12.00;99.90;;;;;;5040480;28;20215;-81
2023/06/02 01:52:59;;;;;;;0.10;0.10;;;12.00;99.90;;;;;;5042961;28;20190;-81
2023/06/02 01:55:25;;;;;;;0.00;0.00;;;11.90;99.90;;;;;;5045404;28;20198;-82
2023/06/02 01:57:51;;;;;;;0.10;0.10;;;11.90;99.90;;;;;;5045728;28;20178;-80
2023/06/02 02:00:18;;;;;;;0.10;0.10;;;11.90;99.90;;;;;;5046632;28;20253;-81
2023/06/02 02:02:44;;;;;;;0.10;0.10;;;11.90;99.90;;;;;;5044899;28;20190;-80
2023/06/02 02:05:10;;;;;;;0.10;0.10;;;11.90;99.90;;;;;;5043423;28;20213;-81
2023/06/02 02:07:36;;;;;;;0.00;0.00;;;11.90;99.90;;;;;;5044775;28;20181;-80
2023/06/02 02:10:02;;;;;;;0.10;0.10;;;11.90;99.90;;;;;;5046225;28;20266;-81
2023/06/02 02:12:28;;;;;;;0.00;0.00;;;11.90;99.90;;;;;;5046392;28;20251;-81
2023/06/02 02:14:56;;;;;;;0.10;0.10;;;11.90;99.90;;;;;;5045612;28;20676;-81
2023/06/02 02:17:25;;;;;;;0.10;0.10;;;11.90;99.90;;;;;;5043247;28;20193;-82
2023/06/02 02:19:55;;;;;;;0.10;0.10;;;11.90;99.90;;;;;;5043042;28;20223;-82
2023/06/02 02:22:22;;;;;;;0.10;0.10;;;11.90;99.90;;;;;;5044139;28;20509;-81
2023/06/02 02:24:47;;;;;;;0.10;0.10;;;11.80;99.90;;;;;;5044923;28;20201;-81
2023/06/02 02:27:13;;;;;;;0.10;0.10;;;11.90;99.90;;;;;;5044906;28;22056;-81
2023/06/02 02:29:39;;;;;;;0.10;0.10;;;11.80;99.90;;;;;;5045622;28;20212;-81
2023/06/02 02:32:05;;;;;;;0.10;0.10;;;11.80;99.90;;;;;;5042703;28;20281;-81
2023/06/02 02:34:32;;;;;;;0.10;0.10;;;11.70;99.90;;;;;;5041633;28;20288;-81
2023/06/02 02:37:01;;;;;;;0.07;0.07;;;11.70;99.90;;;;;;5045294;28;20184;-81
2023/06/02 02:39:30;;;;;;;0.10;0.10;;;11.70;99.90;;;;;;5043154;28;20190;-80
2023/06/02 02:41:56;;;;;;;0.10;0.10;;;11.70;99.90;;;;;;5043849;28;20210;-81
2023/06/02 02:44:21;;;;;;;0.10;0.10;;;11.60;99.90;;;;;;5046290;28;20263;-81
2023/06/02 02:46:47;;;;;;;0.10;0.10;;;11.60;99.90;;;;;;5043095;28;20188;-81
2023/06/02 02:49:13;;;;;;;0.10;0.10;;;11.60;99.90;;;;;;5043817;28;20208;-81
2023/06/02 02:51:38;;;;;;;0.10;0.10;;;11.50;99.90;;;;;;5043579;28;20182;-80
2023/06/02 02:54:05;;;;;;;0.10;0.10;;;11.50;99.90;;;;;;5043903;28;20697;-82
2023/06/02 02:56:30;;;;;;;0.10;0.10;;;11.50;99.90;;;;;;5044702;28;20272;-81
2023/06/02 02:58:58;;;;;;;0.10;0.10;;;11.50;99.90;;;;;;5043577;28;20634;-81
2023/06/02 03:01:26;;;;;;;0.10;0.10;;;11.50;99.90;;;;;;5041434;28;20290;-81
2023/06/02 03:03:52;;;;;;;0.10;0.10;;;11.50;99.90;;;;;;5042403;28;20806;-81
2023/06/02 03:06:18;;;;;;;0.10;0.10;;;11.40;99.90;;;;;;5042850;28;20251;-80
2023/06/02 03:08:44;;;;;;;0.10;0.10;;;11.50;99.90;;;;;;5043329;28;20251;-81
2023/06/02 03:11:11;;;;;;;0.10;0.10;;;11.50;99.90;;;;;;5043318;28;20185;-81
2023/06/02 03:13:36;;;;;;;0.10;0.10;;;11.40;99.90;;;;;;5043464;28;20214;-81
2023/06/02 03:16:02;;;;;;;0.10;0.10;;;11.40;99.90;;;;;;5043403;28;20279;-81
2023/06/02 03:18:28;;;;;;;0.00;0.00;;;11.50;99.90;;;;;;5042827;28;20186;-81
2023/06/02 03:20:55;;;;;;;0.10;0.10;;;11.40;99.90;;;;;;5043441;28;20181;-81
2023/06/02 03:23:21;;;;;;;0.10;0.10;;;11.50;99.90;;;;;;5042143;28;20232;-81
2023/06/02 03:25:46;;;;;;;0.10;0.10;;;11.50;99.90;;;;;;5041272;28;20221;-80
2023/06/02 03:28:12;;;;;;;0.10;0.10;;;11.50;99.90;;;;;;5044660;28;20564;-82
2023/06/02 03:30:38;;;;;;;0.10;0.10;;;11.60;99.90;;;;;;5041865;28;20186;-81
2023/06/02 03:33:03;;;;;;;0.10;0.10;;;11.70;99.90;;;;;;5043096;28;20710;-81
2023/06/02 03:35:29;;;;;;;0.10;0.10;;;11.70;99.90;;;;;;5043409;28;20671;-81
2023/06/02 03:37:54;;;;;;;0.10;0.10;;;11.70;99.90;;;;;;5042745;28;20212;-81
2023/06/02 03:40:20;;;;;;;0.10;0.10;;;11.80;99.90;;;;;;5039353;28;20559;-82
2023/06/02 03:42:45;;;;;;;0.10;0.10;;;11.80;99.90;;;;;;5043694;28;20193;-81
2023/06/02 03:45:11;;;;;;;0.00;0.00;;;12.10;99.90;;;;;;5040582;28;20690;-82
2023/06/02 03:47:37;;;;;;;0.10;0.10;;;12.50;99.90;;;;;;5040816;28;20185;-82
2023/06/02 03:50:02;;;;;;;0.07;0.07;;;12.50;99.90;;;;;;5039917;28;20713;-82
2023/06/02 03:52:30;;;;;;;0.10;0.10;;;12.40;99.90;;;;;;5042407;28;20273;-81
2023/06/02 03:54:56;;;;;;;0.10;0.10;;;12.60;99.90;;;;;;5041558;28;20199;-81
2023/06/02 03:57:22;;;;;;;0.10;0.10;;;13.00;99.90;;;;;;5047821;28;20442;-81
2023/06/02 03:59:48;;;;;;;0.20;0.20;;;13.00;99.90;;;;;;5044555;28;20216;-80
2023/06/02 04:02:13;;;;;;;0.10;0.10;;;12.90;99.90;;;;;;5044103;28;20546;-80
2023/06/02 04:04:40;;;;;;;0.10;0.10;;;12.80;99.90;;;;;;5046296;28;20213;-80
2023/06/02 04:07:05;;;;;;;0.10;0.10;;;12.70;99.90;;;;;;5043284;28;20255;-80
2023/06/02 04:09:31;;;;;;;0.10;0.10;;;12.80;99.90;;;;;;5041572;28;20210;-81
2023/06/02 04:11:56;;;;;;;0.10;0.10;;;12.80;99.90;;;;;;5044236;28;20216;-83
2023/06/02 04:14:22;;;;;;;0.10;0.10;;;13.10;99.90;;;;;;5046966;28;20215;-82
2023/06/02 04:16:47;;;;;;;0.10;0.10;;;13.20;99.90;;;;;;5044111;28;20722;-80
2023/06/02 04:19:13;;;;;;;0.10;0.10;;;13.70;99.90;;;;;;5035692;28;20242;-81
2023/06/02 04:21:39;;;;;;;0.10;0.10;;;13.50;99.90;;;;;;5040196;28;20190;-82
2023/06/02 04:24:04;;;;;;;0.10;0.10;;;13.80;99.90;;;;;;5042283;28;20201;-82
2023/06/02 04:26:30;;;;;;;0.00;0.00;;;13.60;99.90;;;;;;5041733;28;20197;-82
2023/06/02 04:28:56;;;;;;;0.10;0.10;;;13.40;99.90;;;;;;5042424;28;20210;-82
2023/06/02 04:31:38;;;;;;;0.10;0.10;;;13.40;99.90;;;;;;5039768;28;20195;-82
2023/06/02 04:34:03;;;;;;;0.10;0.10;;;13.20;99.90;;;;;;5036638;28;20696;-81
2023/06/02 04:36:29;;;;;;;0.00;0.00;;;13.20;99.90;;;;;;5042466;28;20186;-83
2023/06/02 04:38:55;;;;;;;0.10;0.10;;;13.30;99.90;;;;;;5041027;28;20233;-82
2023/06/02 04:41:22;;;;;;;0.10;0.10;;;13.30;99.90;;;;;;5039280;28;20187;-83
2023/06/02 04:43:48;;;;;;;0.10;0.10;;;13.30;99.90;;;;;;5039099;28;20342;-84
2023/06/02 04:46:13;;;;;;;0.10;0.10;;;13.20;99.90;;;;;;5043369;28;20189;-82
2023/06/02 04:48:42;;;;;;;0.10;0.10;;;13.30;99.90;;;;;;5036353;28;20213;-87
2023/06/02 04:51:08;;;;;;;0.10;0.10;;;13.30;99.90;;;;;;5042769;28;20703;-84
2023/06/02 04:53:33;;;;;;;0.10;0.10;;;13.30;99.90;;;;;;5039175;28;20193;-84
2023/06/02 04:55:59;;;;;;;0.10;0.10;;;13.30;99.90;;;;;;5040723;28;20196;-84
2023/06/02 04:58:25;;;;;;;0.10;0.10;;;13.50;99.90;;;;;;5042957;28;20272;-85
2023/06/02 05:00:51;;;;;;;0.10;0.10;;;13.40;99.90;;;;;;5043276;28;20188;-84
2023/06/02 05:03:16;;;;;;;0.10;0.10;;;13.40;99.90;;;;;;5045556;28;20181;-83
2023/06/02 05:05:42;;;;;;;0.07;0.07;;;13.40;99.90;;;;;;5045436;28;20724;-81
2023/06/02 05:08:07;;;;;;;0.10;0.10;;;13.30;99.90;;;;;;5047205;28;20667;-81
2023/06/02 05:10:33;;;;;;;0.10;0.10;;;13.50;99.90;;;;;;5045053;28;20219;-81
2023/06/02 05:12:59;;;;;;;0.10;0.10;;;13.30;99.90;;;;;;5043624;28;20189;-81
2023/06/02 05:15:25;;;;;;;0.10;0.10;;;13.20;99.90;;;;;;5040957;28;20212;-81
2023/06/02 05:17:53;;;;;;;0.10;0.10;;;13.40;99.90;;;;;;5044029;28;20188;-81
2023/06/02 05:20:18;;;;;;;0.10;0.10;;;13.20;99.90;;;;;;5043296;28;20236;-82
2023/06/02 05:22:44;;;;;;;0.10;0.10;;;13.60;99.90;;;;;;5043317;28;20853;-82
2023/06/02 05:25:10;;;;;;;0.10;0.10;;;13.50;99.90;;;;;;5044881;28;20210;-81
2023/06/02 05:27:36;;;;;;;0.10;0.10;;;13.60;99.90;;;;;;5045503;28;20294;-82
2023/06/02 05:30:02;;;;;;;0.10;0.10;;;13.60;99.90;;;;;;5044465;28;20213;-82
2023/06/02 05:32:28;;;;;;;0.10;0.10;;;13.50;99.90;;;;;;5046825;28;20184;-82
2023/06/02 05:34:54;;;;;;;0.10;0.10;;;13.70;99.90;;;;;;5056875;28;20709;-82
2023/06/02 05:37:19;;;;;;;0.10;0.10;;;13.90;99.90;;;;;;5049037;28;20554;-81
2023/06/02 05:39:45;;;;;;;0.10;0.10;;;14.20;99.90;;;;;;5045178;28;20669;-82
2023/06/02 05:42:11;;;;;;;0.10;0.10;;;14.30;99.90;;;;;;5045212;28;20189;-81
2023/06/02 05:44:36;;;;;;;0.10;0.10;;;14.20;99.90;;;;;;5045519;28;20204;-81
2023/06/02 05:47:02;;;;;;;0.10;0.10;;;14.10;99.90;;;;;;5045204;28;20281;-80
2023/06/02 05:49:27;;;;;;;0.03;0.03;;;14.00;99.90;;;;;;5046177;28;20619;-81
2023/06/02 05:51:53;;;;;;;0.10;0.10;;;14.10;99.90;;;;;;5044635;28;20183;-82
2023/06/02 05:54:18;;;;;;;0.00;0.00;;;14.00;99.90;;;;;;5043173;28;20240;-82
2023/06/02 05:56:44;;;;;;;0.10;0.10;;;13.60;99.90;;;;;;5043379;28;20187;-82
2023/06/02 05:59:09;;;;;;;0.10;0.10;;;13.70;99.90;;;;;;5046269;28;20182;-82
2023/06/02 06:01:35;;;;;;;0.10;0.10;;;13.80;99.90;;;;;;5045062;28;20191;-82
2023/06/02 06:04:01;;;;;;;0.10;0.10;;;13.50;99.90;;;;;;5044694;28;20189;-82
2023/06/02 06:06:27;;;;;;;0.10;0.10;;;13.70;99.90;;;;;;5040640;28;20299;-82
2023/06/02 06:08:52;;;;;;;0.10;0.10;;;13.90;99.90;;;;;;5044582;28;20216;-82
2023/06/02 06:11:18;;;;;;;0.10;0.10;;;13.90;99.90;;;;;;5041174;28;20279;-80
2023/06/02 06:13:44;;;;;;;0.10;0.10;;;14.00;99.90;;;;;;5041184;28;20198;-81
2023/06/02 06:16:10;;;;;;;0.30;0.30;;;14.00;99.90;;;;;;5033409;28;20197;-81
2023/06/02 06:18:36;;;;;;;0.10;0.10;;;13.60;99.90;;;;;;5044439;28;20273;-81
2023/06/02 06:21:02;;;;;;;0.10;0.10;;;13.40;99.90;;;;;;5044902;28;20308;-81
2023/06/02 06:23:28;;;;;;;0.10;0.10;;;13.60;99.90;;;;;;5042024;28;20193;-81
2023/06/02 06:25:53;;;;;;;0.10;0.10;;;13.60;99.90;;;;;;5043531;28;20222;-82
2023/06/02 06:28:19;;;;;;;0.10;0.10;;;13.80;99.90;;;;;;5040822;28;20188;-81
2023/06/02 06:30:45;;;;;;;0.10;0.10;;;14.00;99.90;;;;;;5044147;28;21072;-81
2023/06/02 06:33:11;;;;;;;0.10;0.10;;;13.70;99.90;;;;;;5041712;28;20700;-81
2023/06/02 06:35:37;;;;;;;0.10;0.10;;;13.90;99.90;;;;;;5037950;28;20221;-81
2023/06/02 06:38:04;;;;;;;0.10;0.10;;;14.30;99.90;;;;;;5041552;28;20189;-81
2023/06/02 06:40:30;;;;;;;0.10;0.10;;;14.60;99.90;;;;;;5041785;28;20280;-80
2023/06/02 06:42:56;;;;;;;0.10;0.10;;;14.80;99.90;;;;;;5035851;28;20510;-82
2023/06/02 06:45:21;;;;;;;0.10;0.10;;;14.40;99.90;;;;;;5041161;28;20314;-81
2023/06/02 06:47:47;;;;;;;0.10;0.10;;;14.60;99.90;;;;;;5041041;28;20682;-80
2023/06/02 06:50:14;;;;;;;0.10;0.10;;;14.70;99.90;;;;;;5038202;28;20241;-81
2023/06/02 06:52:40;;;;;;;0.10;0.10;;;15.40;99.90;;;;;;5038855;28;20305;-80
2023/06/02 06:55:06;;;;;;;0.10;0.10;;;15.50;99.90;;;;;;5036204;28;20613;-80
2023/06/02 06:57:32;;;;;;;0.10;0.10;;;15.70;99.90;;;;;;5036306;28;20194;-81
2023/06/02 06:59:57;;;;;;;0.10;0.10;;;15.90;99.90;;;;;;5033663;28;20228;-80
2023/06/02 07:02:23;;;;;;;0.10;0.10;;;15.00;99.90;;;;;;5037934;28;20225;-81
2023/06/02 07:04:48;;;;;;;0.10;0.10;;;15.00;99.90;;;;;;5042665;28;20240;-81
2023/06/02 07:07:14;;;;;;;0.10;0.10;;;15.00;99.90;;;;;;5039464;28;20225;-82
2023/06/02 07:09:41;;;;;;;0.10;0.10;;;14.50;99.90;;;;;;5031894;28;20210;-82
2023/06/02 07:12:06;;;;;;;0.10;0.10;;;14.20;99.90;;;;;;5026368;28;20189;-81
2023/06/02 07:14:32;;;;;;;0.10;0.10;;;14.30;99.90;;;;;;5041593;28;20233;-81
2023/06/02 07:16:59;;;;;;;0.10;0.10;;;14.10;99.90;;;;;;5044347;28;20216;-81
2023/06/02 07:19:25;;;;;;;0.10;0.10;;;14.30;99.90;;;;;;5043860;28;20212;-81
2023/06/02 07:21:51;;;;;;;0.10;0.10;;;14.40;99.90;;;;;;5042564;28;21224;-83
2023/06/02 07:24:17;;;;;;;0.10;0.10;;;14.50;99.90;;;;;;5042324;28;20258;-81
2023/06/02 07:26:43;;;;;;;0.10;0.10;;;14.80;99.90;;;;;;5038464;28;20187;-81
2023/06/02 07:29:09;;;;;;;0.10;0.10;;;14.80;99.90;;;;;;5035483;28;20271;-81
2023/06/02 07:31:35;;;;;;;0.10;0.10;;;15.10;99.90;;;;;;5039540;28;20192;-81
2023/06/02 07:34:01;;;;;;;0.10;0.10;;;15.50;99.90;;;;;;5039663;28;20182;-81
2023/06/02 07:36:26;;;;;;;0.10;0.10;;;15.30;99.90;;;;;;5039207;28;20192;-80
2023/06/02 07:38:52;;;;;;;0.10;0.10;;;15.40;99.90;;;;;;5040943;28;20191;-81
2023/06/02 07:41:18;;;;;;;0.10;0.10;;;15.20;99.90;;;;;;5042373;28;20214;-81
2023/06/02 07:43:43;;;;;;;0.10;0.10;;;15.20;99.90;;;;;;5042525;28;20262;-82
2023/06/02 07:46:09;;;;;;;0.10;0.10;;;15.10;99.90;;;;;;5046174;28;20220;-80
2023/06/02 07:48:35;;;;;;;0.10;0.10;;;15.50;99.90;;;;;;5043376;28;20320;-81
2023/06/02 07:51:02;;;;;;;0.10;0.10;;;15.90;99.90;;;;;;5046006;28;20188;-81
2023/06/02 07:53:27;;;;;;;0.10;0.10;;;16.20;99.90;;;;;;5043753;28;20181;-81
2023/06/02 07:55:53;;;;;;;0.10;0.10;;;15.80;99.90;;;;;;5043795;28;20300;-81
2023/06/02 07:58:19;;;;;;;0.00;0.00;;;15.70;99.90;;;;;;5040635;28;20239;-81
2023/06/02 08:00:44;;;;;;;0.10;0.10;;;15.10;99.90;;;;;;5042540;28;20259;-81
2023/06/02 08:03:10;;;;;;;0.43;0.43;;;15.10;99.90;;;;;;5038955;28;20192;-81
2023/06/02 08:05:35;;;;;;;0.10;0.10;;;15.00;99.90;;;;;;5038572;28;20244;-81
2023/06/02 08:08:01;;;;;;;0.43;0.43;;;15.60;99.90;;;;;;5042515;28;20706;-82
2023/06/02 08:10:27;;;;;;;0.10;0.10;;;15.20;99.90;;;;;;5041674;28;20726;-82
2023/06/02 08:12:52;;;;;;;0.10;0.10;;;15.60;99.90;;;;;;5035389;28;20911;-82
2023/06/02 08:15:18;;;;;;;0.10;0.10;;;15.70;99.90;;;;;;5038230;28;20274;-81
2023/06/02 08:17:43;;;;;;;0.10;0.10;;;15.90;99.90;;;;;;5037278;28;20188;-82
2023/06/02 08:20:09;;;;;;;0.10;0.10;;;16.30;99.90;;;;;;5041451;28;20182;-81
2023/06/02 08:22:36;;;;;;;0.10;0.10;;;16.00;99.90;;;;;;5029928;28;20195;-82
2023/06/02 08:25:02;;;;;;;0.10;0.10;;;15.90;99.90;;;;;;5039994;28;20626;-81
2023/06/02 08:27:28;;;;;;;0.10;0.10;;;15.70;99.90;;;;;;5039053;28;20250;-81
2023/06/02 08:29:56;;;;;;;0.10;0.10;;;15.70;99.90;;;;;;5040624;28;20217;-81
2023/06/02 08:32:24;;;;;;;0.10;0.10;;;16.00;99.90;;;;;;5039573;28;20180;-81
2023/06/02 08:34:51;;;;;;;0.10;0.10;;;15.60;99.90;;;;;;5038012;28;20213;-81
2023/06/02 08:37:17;;;;;;;0.10;0.10;;;15.80;99.90;;;;;;5041773;28;20209;-81
2023/06/02 08:39:48;;;;;;;0.10;0.10;;;16.10;99.90;;;;;;5043250;28;20224;-81
2023/06/02 08:42:15;;;;;;;0.10;0.10;;;15.90;99.90;;;;;;5044140;28;20186;-81
2023/06/02 08:44:41;;;;;;;0.10;0.10;;;16.30;99.90;;;;;;5034377;28;20213;-82
2023/06/02 08:47:11;;;;;;;0.10;0.10;;;16.60;99.90;;;;;;5035957;28;20186;-81
2023/06/02 08:49:38;;;;;;;0.10;0.10;;;16.50;99.90;;;;;;5035223;28;20209;-83
2023/06/02 08:52:09;;;;;;;0.10;0.10;;;16.90;99.90;;;;;;5033917;28;20201;-82
2023/06/02 08:54:36;;;;;;;0.10;0.10;;;16.50;99.90;;;;;;5034604;28;20266;-79
2023/06/02 08:57:04;;;;;;;0.10;0.10;;;15.90;99.90;;;;;;5031342;28;20185;-81
2023/06/02 08:59:30;;;;;;;0.10;0.10;;;16.00;99.90;;;;;;5039558;28;20190;-80
2023/06/02 09:01:55;;;;;;;0.10;0.10;;;16.70;99.90;;;;;;5036916;28;20185;-80
2023/06/02 09:04:21;;;;;;;0.10;0.10;;;16.40;99.90;;;;;;5037153;28;20686;-79
2023/06/02 09:06:49;;;;;;;0.10;0.10;;;16.70;99.90;;;;;;5034813;28;20188;-80
2023/06/02 09:09:15;;;;;;;0.10;0.10;;;16.30;99.90;;;;;;5039294;28;20691;-80
2023/06/02 09:11:59;;;;;;;0.10;0.10;;;16.40;99.90;;;;;;5042661;28;20185;-84
2023/06/02 09:14:25;;;;;;;0.10;0.10;;;16.70;99.90;;;;;;5044873;28;20563;-81
2023/06/02 09:16:50;;;;;;;0.10;0.10;;;16.90;99.90;;;;;;5046213;28;20239;-81
2023/06/02 09:19:16;;;;;;;0.17;0.17;;;16.90;99.90;;;;;;5046775;28;20655;-81
2023/06/02 09:21:42;;;;;;;0.10;0.10;;;17.30;99.90;;;;;;5042616;28;20194;-82
2023/06/02 09:24:07;;;;;;;0.10;0.10;;;17.50;99.90;;;;;;5051378;28;20213;-81
2023/06/02 09:26:33;;;;;;;0.10;0.10;;;17.80;99.90;;;;;;5039880;28;20190;-80
2023/06/02 09:29:06;;;;;;;0.10;0.10;;;17.60;99.90;;;;;;5040763;28;20205;-80
2023/06/02 09:31:52;;;;;;;0.10;0.10;;;16.90;99.90;;;;;;5037972;28;20240;-80
2023/06/02 09:34:19;;;;;;;0.10;0.10;;;17.00;99.90;;;;;;5043617;28;20697;-79
2023/06/02 09:36:51;;;;;;;0.20;0.20;;;17.50;99.90;;;;;;5037585;28;20189;-80
2023/06/02 09:39:43;;;;;;;0.10;0.10;;;17.60;99.90;;;;;;5042980;28;20185;-80
2023/06/02 09:42:17;;;;;;;0.10;0.10;;;17.30;99.90;;;;;;5038964;28;20587;-80
2023/06/02 09:45:05;;;;;;;0.20;0.20;;;17.20;99.90;;;;;;5042385;28;20792;-80
2023/06/02 09:47:43;;;;;;;0.10;0.10;;;17.20;99.90;;;;;;5040381;28;20189;-80
2023/06/02 09:50:10;;;;;;;0.10;0.10;;;17.30;99.90;;;;;;5040554;28;20552;-81
2023/06/02 09:52:36;;;;;;;0.10;0.10;;;17.60;99.90;;;;;;5039103;28;20182;-81
2023/06/02 09:55:02;;;;;;;0.10;0.10;;;17.30;99.90;;;;;;5046212;28;20212;-80
2023/06/02 09:57:30;;;;;;;0.10;0.10;;;17.40;99.90;;;;;;5043675;28;20205;-80
2023/06/02 09:59:58;;;;;;;0.10;0.10;;;17.70;99.90;;;;;;5043545;28;20510;-80
2023/06/02 10:02:23;;;;;;;0.10;0.10;;;17.50;99.90;;;;;;5037708;28;20189;-80
2023/06/02 10:04:49;;;;;;;0.10;0.10;;;17.80;99.90;;;;;;5041423;28;20235;-81
2023/06/02 10:07:54;;;;;;;0.10;0.10;;;18.40;99.90;;;;;;5041937;28;20190;-80
2023/06/02 10:10:44;;;;;;;0.10;0.10;;;18.10;99.90;;;;;;5042744;28;20206;-81
2023/06/02 10:13:10;;;;;;;0.10;0.10;;;17.50;99.90;;;;;;5041628;28;20210;-81
2023/06/02 10:16:01;;;;;;;0.10;0.10;;;17.60;99.90;;;;;;5043906;28;20586;-80
2023/06/02 10:19:01;;;;;;;0.10;0.10;;;18.00;99.90;;;;;;5045552;28;20186;-81
2023/06/02 10:21:51;;;;;;;0.10;0.10;;;18.20;99.90;;;;;;5042244;28;20655;-80
2023/06/02 10:24:39;;;;;;;0.10;0.10;;;18.20;99.90;;;;;;5039578;28;20232;-80
2023/06/02 10:27:19;;;;;;;0.10;0.10;;;18.80;99.90;;;;;;5044817;28;20185;-81
2023/06/02 10:29:46;;;;;;;0.10;0.10;;;19.30;99.90;;;;;;5041683;28;20209;-80
2023/06/02 10:32:42;;;;;;;0.10;0.10;;;18.90;99.90;;;;;;5040459;28;20185;-80
2023/06/02 10:35:08;;;;;;;0.10;0.10;;;19.00;99.90;;;;;;5040560;28;20771;-80
2023/06/02 10:37:36;;;;;;;0.10;0.10;;;18.60;99.90;;;;;;5047361;28;20304;-82
2023/06/02 10:40:02;;;;;;;0.10;0.10;;;18.80;99.90;;;;;;5045401;28;20539;-81
2023/06/02 10:42:30;;;;;;;0.10;0.10;;;18.80;99.90;;;;;;5043370;28;20196;-85
2023/06/02 10:45:17;;;;;;;0.10;0.10;;;19.10;99.90;;;;;;5047485;28;20247;-84
2023/06/02 10:47:42;;;;;;;0.10;0.10;;;19.50;99.90;;;;;;5043944;28;20288;-84
2023/06/02 10:50:10;;;;;;;0.10;0.10;;;19.40;99.90;;;;;;5044460;28;20904;-84
2023/06/02 10:53:00;;;;;;;0.10;0.10;;;19.00;99.90;;;;;;5043310;28;20189;-84
2023/06/02 10:55:34;;;;;;;0.10;0.10;;;19.20;99.90;;;;;;5045026;28;20581;-85
2023/06/02 10:58:06;;;;;;;0.10;0.10;;;19.30;99.90;;;;;;5047252;28;20178;-83
2023/06/02 11:00:36;;;;;;;0.10;0.10;;;19.30;99.90;;;;;;5042121;28;20261;-85
2023/06/02 11:03:02;;;;;;;0.10;0.10;;;20.00;99.90;;;;;;5047134;28;20177;-85
2023/06/02 11:05:30;;;;;;;0.10;0.10;;;20.50;99.90;;;;;;5043067;28;20244;-84
2023/06/02 11:08:23;;;;;;;0.10;0.10;;;20.00;99.90;;;;;;5038240;28;20276;-82
2023/06/02 11:10:54;;;;;;;11.43;2.40;;;19.00;99.90;;;;;;5041828;28;20201;-81
2023/06/02 11:13:20;;;;;;;0.10;0.10;;;19.00;99.90;;;;;;5037687;28;20608;-80
2023/06/02 11:15:58;;;;;;;0.10;0.10;;;19.50;99.90;;;;;;5041522;28;20212;-81
2023/06/02 11:18:28;;;;;;;0.10;0.10;;;19.80;99.90;;;;;;5044827;28;20189;-82
2023/06/02 11:20:55;;;;;;;0.10;0.10;;;20.20;99.90;;;;;;5041238;28;20174;-81
2023/06/02 11:23:21;;;;;;;0.10;0.10;;;20.00;99.90;;;;;;5043287;28;20188;-81
2023/06/02 11:25:48;;;;;;;0.10;0.10;;;20.40;99.90;;;;;;5039099;28;20205;-81
2023/06/02 11:28:20;;;;;;;0.10;0.10;;;20.00;99.90;;;;;;5043234;28;20186;-81
2023/06/02 11:30:46;;;;;;;0.10;0.10;;;19.30;99.90;;;;;;5041346;28;20225;-82
2023/06/02 11:33:12;;;;;;;0.10;0.10;;;20.00;99.90;;;;;;5046434;28;20194;-84
2023/06/02 11:35:40;;;;;;;0.10;0.10;;;20.40;99.90;;;;;;5045836;28;20202;-83
2023/06/02 11:38:08;;;;;;;0.10;0.10;;;20.60;99.90;;;;;;5042199;28;20192;-85
2023/06/02 11:40:35;;;;;;;0.10;0.10;;;21.00;99.90;;;;;;5046436;28;20182;-83
2023/06/02 11:43:03;;;;;;;0.10;0.10;;;21.20;99.90;;;;;;5043232;28;20190;-82
2023/06/02 11:45:29;;;;;;;0.10;0.10;;;20.70;99.90;;;;;;5047710;28;20209;-85
2023/06/02 11:48:05;;;;;;;0.10;0.10;;;20.60;99.90;;;;;;5047823;28;20182;-85
2023/06/02 11:50:31;;;;;;;0.10;0.10;;;20.50;99.90;;;;;;5043880;28;20206;-83
2023/06/02 11:52:58;;;;;;;0.10;0.10;;;20.70;99.90;;;;;;5041862;28;20245;-83
2023/06/02 11:55:32;;;;;;;0.10;0.10;;;20.90;99.90;;;;;;5046953;28;20301;-83
2023/06/02 11:58:20;;;;;;;0.10;0.10;;;21.10;99.90;;;;;;5045677;28;20276;-83
2023/06/02 12:00:46;;;;;;;0.10;0.10;;;21.10;99.90;;;;;;5044086;28;20253;-85
2023/06/02 12:03:12;;;;;;;0.10;0.10;;;20.70;99.90;;;;;;5044274;28;20197;-88
2023/06/02 12:05:42;;;;;;;0.10;0.10;;;21.20;99.90;;;;;;5046163;28;20221;-81
2023/06/02 12:08:20;;;;;;;0.10;0.10;;;20.60;99.90;;;;;;5039663;28;20200;-82
2023/06/02 12:10:47;;;;;;;0.10;0.10;;;20.50;99.90;;;;;;5040133;28;20197;-81
2023/06/02 12:13:29;;;;;;;0.10;0.10;;;20.90;99.90;;;;;;5040605;28;20190;-83
2023/06/02 12:15:57;;;;;;;0.10;0.10;;;20.70;99.90;;;;;;5062293;28;20275;-82
2023/06/02 12:18:28;;;;;;;0.10;0.10;;;20.90;99.90;;;;;;5046628;28;20190;-81
2023/06/02 12:20:55;;;;;;;0.10;0.10;;;21.50;99.90;;;;;;5041156;28;20181;-81
2023/06/02 12:23:20;;;;;;;0.10;0.10;;;22.00;99.90;;;;;;5042346;28;20276;-82
2023/06/02 12:25:59;;;;;;;0.10;0.10;;;21.60;99.90;;;;;;5040453;28;20297;-83
2023/06/02 12:28:25;;;;;;;0.10;0.10;;;21.80;99.90;;;;;;5040522;28;20197;-83
2023/06/02 12:30:51;;;;;;;0.10;0.10;;;21.60;99.90;;;;;;5040160;28;20223;-81
2023/06/02 12:33:17;;;;;;;0.10;0.10;;;21.80;99.90;;;;;;5040022;28;20185;-82
2023/06/02 12:35:43;;;;;;;0.10;0.10;;;21.20;99.90;;;;;;5041963;28;20435;-82
2023/06/02 12:38:09;;;;;;;0.10;0.10;;;21.10;99.90;;;;;;5042770;28;20178;-82
2023/06/02 12:40:37;;;;;;;0.10;0.10;;;20.70;99.90;;;;;;5038769;28;20712;-82
2023/06/02 12:43:03;;;;;;;0.10;0.10;;;20.40;99.90;;;;;;5040738;28;20675;-82
2023/06/02 12:45:29;;;;;;;0.10;0.10;;;20.40;99.90;;;;;;5041945;28;20215;-82
2023/06/02 12:47:54;;;;;;;0.10;0.10;;;20.80;99.90;;;;;;5043928;28;20194;-83
2023/06/02 12:50:21;;;;;;;0.10;0.10;;;21.40;99.90;;;;;;5045246;28;20567;-82
2023/06/02 12:52:47;;;;;;;0.10;0.10;;;20.80;99.90;;;;;;5041763;28;20182;-82